Ester, AK (99725)

7:35 PM AKST on February 21, 2017 (GMT -0900)
MWICA2 | | Change Station

Elev 2230 ft 65.18 °N, 148.07 °W | Updated 55 minutes ago

Clear
Clear
-10.0 °F
Feels Like -25 °F
N
7.0
Wind Variable Wind from ENE
Gusts 12.0 mph

Today
High -- | Low -- °F
--% Chance of Precip.
Yesterday
High -- | Low -- °F
Precip. -- in
Pressure 30.23 in
Visibility 10.0 miles
Clouds Clear
Windchill -25 °F
Dew Point -20.0 °F
Humidity 59%
Rainfall 0.00 in
Snow Depth Not available.
8:28 AM 5:44 PM
Waning Crescent, 20% visible
METAR PAFA 220353Z 02004KT 10SM CLR M26/M28 A3017 RMK AO2 SLP235 T12611278 $
Pressure 30.23 in
Visibility 10.0 miles
Clouds Clear
Windchill -25 °F
Dew Point -20.0 °F
Humidity 59%
Rainfall 0.00 in
Snow Depth Not available.
8:28 AM 5:44 PM
Waning Crescent, 20% visible
METAR PAFA 220353Z 02004KT 10SM CLR M26/M28 A3017 RMK AO2 SLP235 T12611278 $

Get Your Daily Forecast Email!

Thanks for signing up!

Be on the lookout for a verification email in your inbox.

You'll start receiving the daily forecast at 8 AM.

×

10-Day Weather Forecast

Almanac

Astronomy

Feb. 21, 2017 Rise Set
Actual Time
Civil Twilight
Nautical Twilight
Astronomical Twilight
Moon
Length of Visible Light
Length of Day
Tomorrow will be .
, % of the Moon is Illuminated

Today's Extremes

State Highs State Lows

Community

WunderPhotos

Upload Photos

1,962,540 photos uploaded!

WunderBlog® & News

Nearby

Air Quality

  Air Quality AQ Index Pollutant
Not available.

Snow Depth

Station Depth Elevation

Earthquake Activity

City Distance Mag. Time & Date
Minimum magnitude displayed is 2.5.

Coastal Water Temperatures

Place Temperature

Stations

Nearby Weather Stations

Station Location Temp. Windchill Dew Point Humidity Wind Precip. Elev Updated Type
                   

Watches & Warnings

There are currently no watches in effect.